Time;durP1;ratioP1;P1;durP2;ratioP2;P2;SDS_P1;SDS_P2;PMS_P1;PMS_P2;Temp;Humidity;BMP_temperature;BMP_pressure;BME280_temperature;BME280_humidity;BME280_pressure;Samples;Min_cycle;Max_cycle;Signal;HPM_P1;HPM_P2
2024/01/18 00:00:06;;;;;;;13.60;7.70;;;-1.20;99.90;;;;;;5065124;28;20217;-69
2024/01/18 00:02:32;;;;;;;12.63;7.83;;;-1.20;99.90;;;;;;5080288;28;20404;-69
2024/01/18 00:04:58;;;;;;;12.17;7.53;;;-1.20;99.90;;;;;;5071109;28;20694;-67
2024/01/18 00:07:24;;;;;;;13.80;8.13;;;-1.20;99.90;;;;;;5052249;28;20185;-67
2024/01/18 00:09:49;;;;;;;10.77;7.50;;;-1.20;99.90;;;;;;5071583;28;20197;-67
2024/01/18 00:12:15;;;;;;;8.37;5.80;;;-1.20;99.90;;;;;;5068861;28;20424;-68
2024/01/18 00:14:40;;;;;;;11.53;6.90;;;-1.20;99.90;;;;;;5060065;28;20177;-67
2024/01/18 00:17:06;;;;;;;12.30;6.80;;;-1.20;99.90;;;;;;5071475;28;20288;-68
2024/01/18 00:19:32;;;;;;;10.43;6.43;;;-1.20;99.90;;;;;;5059635;28;20227;-67
2024/01/18 00:21:57;;;;;;;11.83;6.80;;;-1.20;99.90;;;;;;5076070;28;20238;-67
2024/01/18 00:24:23;;;;;;;9.13;6.17;;;-1.20;99.90;;;;;;5077187;28;20213;-68
2024/01/18 00:26:48;;;;;;;12.43;7.63;;;-1.20;99.90;;;;;;5082740;28;20249;-72
2024/01/18 00:29:14;;;;;;;12.90;7.83;;;-1.10;99.90;;;;;;5076227;28;20610;-68
2024/01/18 00:31:40;;;;;;;13.90;9.03;;;-1.20;99.90;;;;;;5079810;28;20185;-68
2024/01/18 00:34:05;;;;;;;13.67;8.57;;;-1.20;99.90;;;;;;5071863;28;20201;-67
2024/01/18 00:36:31;;;;;;;13.70;8.50;;;-1.20;99.90;;;;;;5058866;28;20225;-68
2024/01/18 00:38:57;;;;;;;12.97;7.97;;;-1.20;99.90;;;;;;5076437;28;20679;-68
2024/01/18 00:41:29;;;;;;;12.87;8.50;;;-1.20;99.90;;;;;;5071968;28;20316;-67
2024/01/18 00:43:55;;;;;;;12.43;7.80;;;-1.20;99.90;;;;;;5061358;28;20860;-68
2024/01/18 00:46:21;;;;;;;15.03;8.70;;;-1.20;99.90;;;;;;5063078;28;20485;-67
2024/01/18 00:48:47;;;;;;;10.00;7.60;;;-1.20;99.90;;;;;;5060968;28;20529;-66
2024/01/18 00:51:12;;;;;;;10.93;7.03;;;-1.20;99.90;;;;;;5063274;28;20514;-67
2024/01/18 00:53:38;;;;;;;9.87;6.60;;;-1.20;99.90;;;;;;5055438;28;20248;-67
2024/01/18 00:56:09;;;;;;;10.20;6.60;;;-1.20;99.90;;;;;;5063230;28;20217;-67
2024/01/18 00:58:36;;;;;;;12.00;7.37;;;-1.30;99.90;;;;;;5055314;28;20477;-68
2024/01/18 01:01:02;;;;;;;12.63;8.30;;;-1.30;99.90;;;;;;5071172;28;20418;-68
2024/01/18 01:03:29;;;;;;;17.50;10.57;;;-1.30;99.90;;;;;;5068429;28;20851;-68
2024/01/18 01:05:55;;;;;;;13.97;9.80;;;-1.30;99.90;;;;;;5066159;28;20439;-69
2024/01/18 01:08:20;;;;;;;17.13;9.20;;;-1.40;99.90;;;;;;5061346;28;20714;-69
2024/01/18 01:10:46;;;;;;;16.03;10.00;;;-1.30;99.90;;;;;;5057802;28;20248;-67
2024/01/18 01:13:12;;;;;;;15.00;9.37;;;-1.30;99.90;;;;;;5062797;28;20189;-68
2024/01/18 01:15:37;;;;;;;12.33;8.80;;;-1.30;99.90;;;;;;5072078;28;20207;-68
2024/01/18 01:18:03;;;;;;;11.77;8.20;;;-1.40;99.90;;;;;;5075954;28;20553;-70
2024/01/18 01:20:29;;;;;;;9.30;6.87;;;-1.30;99.90;;;;;;5062006;28;20190;-68
2024/01/18 01:22:54;;;;;;;10.20;7.20;;;-1.30;99.90;;;;;;5064105;28;20185;-69
2024/01/18 01:25:22;;;;;;;11.70;7.30;;;-1.30;99.90;;;;;;5064993;28;20202;-69
2024/01/18 01:27:48;;;;;;;8.87;7.00;;;-1.40;99.90;;;;;;5065440;28;20197;-67
2024/01/18 01:30:15;;;;;;;11.80;7.40;;;-1.40;99.90;;;;;;5058316;28;20785;-68
2024/01/18 01:32:41;;;;;;;10.37;7.93;;;-1.40;99.90;;;;;;5077574;28;20431;-69
2024/01/18 01:35:07;;;;;;;12.53;8.50;;;-1.40;99.90;;;;;;5064486;28;20441;-69
2024/01/18 01:37:32;;;;;;;9.87;7.23;;;-1.40;99.90;;;;;;5070964;28;20339;-69
2024/01/18 01:39:58;;;;;;;9.50;7.27;;;-1.40;99.90;;;;;;5066897;28;20408;-68
2024/01/18 01:42:24;;;;;;;11.87;8.67;;;-1.40;99.90;;;;;;5061330;28;20448;-68
2024/01/18 01:44:52;;;;;;;10.83;6.87;;;-1.40;99.90;;;;;;5074177;28;20608;-67
2024/01/18 01:47:18;;;;;;;8.67;6.40;;;-1.40;99.90;;;;;;5063646;28;20412;-69
2024/01/18 01:49:44;;;;;;;12.03;7.50;;;-1.40;99.90;;;;;;5060557;28;20979;-68
2024/01/18 01:52:12;;;;;;;10.17;7.10;;;-1.40;99.90;;;;;;5075756;28;20196;-68
2024/01/18 01:54:38;;;;;;;11.33;6.60;;;-1.50;99.90;;;;;;5077206;28;20447;-70
2024/01/18 01:57:04;;;;;;;11.70;6.93;;;-1.40;99.90;;;;;;5065061;28;20536;-68
2024/01/18 01:59:32;;;;;;;11.60;8.03;;;-1.50;99.90;;;;;;5067037;28;20412;-67
2024/01/18 02:01:58;;;;;;;12.33;7.20;;;-1.50;99.90;;;;;;5075041;28;20421;-68
2024/01/18 02:04:25;;;;;;;11.67;8.07;;;-1.50;99.90;;;;;;5074215;28;20828;-67
2024/01/18 02:06:53;;;;;;;13.23;9.10;;;-1.50;99.90;;;;;;5061078;28;20451;-68
2024/01/18 02:09:20;;;;;;;15.40;9.10;;;-1.50;99.90;;;;;;5071685;28;20404;-67
2024/01/18 02:11:46;;;;;;;17.40;9.17;;;-1.50;99.90;;;;;;5073946;28;20446;-68
2024/01/18 02:14:12;;;;;;;14.37;9.27;;;-1.50;99.90;;;;;;5060497;28;20456;-68
2024/01/18 02:16:37;;;;;;;15.47;9.70;;;-1.50;99.90;;;;;;5064095;28;20456;-68
2024/01/18 02:19:03;;;;;;;13.37;9.37;;;-1.50;99.90;;;;;;5064679;28;20751;-68
2024/01/18 02:21:29;;;;;;;13.30;9.83;;;-1.50;99.90;;;;;;5064533;28;20668;-69
2024/01/18 02:24:05;;;;;;;14.43;8.37;;;-1.50;99.90;;;;;;5061537;28;20486;-68
2024/01/18 02:26:31;;;;;;;11.00;7.00;;;-1.50;99.90;;;;;;5062020;28;20209;-69
2024/01/18 02:28:57;;;;;;;10.07;6.90;;;-1.50;99.90;;;;;;5079242;28;20883;-68
2024/01/18 02:31:23;;;;;;;10.17;7.03;;;-1.50;99.90;;;;;;5068619;28;20258;-67
2024/01/18 02:33:50;;;;;;;9.93;7.27;;;-1.40;99.90;;;;;;5064794;28;20415;-69
2024/01/18 02:36:16;;;;;;;12.47;7.50;;;-1.50;99.90;;;;;;5067762;28;20730;-67
2024/01/18 02:38:43;;;;;;;9.53;6.97;;;-1.50;99.90;;;;;;5064241;28;20931;-67
2024/01/18 02:41:08;;;;;;;12.30;7.90;;;-1.50;99.90;;;;;;5069348;28;20490;-68
2024/01/18 02:43:34;;;;;;;12.30;7.83;;;-1.40;99.90;;;;;;5068792;28;20770;-67
2024/01/18 02:46:00;;;;;;;11.70;7.27;;;-1.50;99.90;;;;;;5057419;28;20211;-68
2024/01/18 02:48:25;;;;;;;11.17;7.23;;;-1.40;99.90;;;;;;5062274;28;20436;-67
2024/01/18 02:50:51;;;;;;;10.60;7.20;;;-1.40;99.90;;;;;;5060644;28;20590;-67
2024/01/18 02:53:20;;;;;;;8.60;6.60;;;-1.40;99.90;;;;;;5059195;28;20637;-67
2024/01/18 02:55:46;;;;;;;10.80;7.20;;;-1.40;99.90;;;;;;5071257;28;20209;-66
2024/01/18 02:58:11;;;;;;;10.47;6.37;;;-1.40;99.90;;;;;;5074132;28;21035;-67
2024/01/18 03:00:38;;;;;;;8.93;6.30;;;-1.40;99.90;;;;;;5065445;28;20432;-68
2024/01/18 03:03:04;;;;;;;11.90;6.43;;;-1.40;99.90;;;;;;5061759;28;20196;-68
2024/01/18 03:05:31;;;;;;;10.10;7.30;;;-1.30;99.90;;;;;;5065339;28;20455;-68
2024/01/18 03:07:56;;;;;;;11.17;7.87;;;-1.40;99.90;;;;;;5072044;28;20443;-68
2024/01/18 03:10:22;;;;;;;12.77;8.03;;;-1.20;99.90;;;;;;5053918;28;20416;-67
2024/01/18 03:12:48;;;;;;;11.53;7.50;;;-1.30;99.90;;;;;;5062053;28;20574;-67
2024/01/18 03:15:13;;;;;;;10.87;8.00;;;-1.30;99.90;;;;;;5064025;28;20209;-68
2024/01/18 03:17:39;;;;;;;8.90;6.70;;;-1.40;99.90;;;;;;5069814;28;20499;-68
2024/01/18 03:20:07;;;;;;;9.17;6.20;;;-1.40;99.90;;;;;;5058169;28;20186;-68
2024/01/18 03:22:39;;;;;;;9.07;5.77;;;-1.20;99.90;;;;;;5062309;28;20579;-67
2024/01/18 03:25:05;;;;;;;8.10;6.70;;;-1.30;99.90;;;;;;5056920;28;20412;-68
2024/01/18 03:27:31;;;;;;;12.43;8.00;;;-1.30;99.90;;;;;;5052832;28;20897;-69
2024/01/18 03:29:57;;;;;;;10.50;7.23;;;-1.20;99.90;;;;;;5053026;28;20416;-69
2024/01/18 03:32:22;;;;;;;10.30;7.03;;;-1.30;99.90;;;;;;5060447;28;20238;-67
2024/01/18 03:34:49;;;;;;;9.63;6.10;;;-1.30;99.90;;;;;;5044796;28;20185;-67
2024/01/18 03:37:14;;;;;;;12.50;7.50;;;-1.20;99.90;;;;;;5062677;28;20619;-67
2024/01/18 03:39:40;;;;;;;9.93;6.57;;;-1.40;99.90;;;;;;5058019;28;20452;-67
2024/01/18 03:42:06;;;;;;;7.60;5.60;;;-1.20;99.90;;;;;;5069941;28;20220;-67
2024/01/18 03:44:34;;;;;;;8.33;6.33;;;-1.30;99.90;;;;;;5060106;28;20617;-68
2024/01/18 03:47:00;;;;;;;7.80;6.20;;;-1.40;99.90;;;;;;5068395;28;20213;-68
2024/01/18 03:49:26;;;;;;;7.30;5.40;;;-1.30;99.90;;;;;;5063756;28;20886;-67
2024/01/18 03:51:52;;;;;;;8.03;5.70;;;-1.30;99.90;;;;;;5056653;28;20218;-68
2024/01/18 03:54:18;;;;;;;11.97;7.00;;;-1.30;99.90;;;;;;5066640;28;20194;-67
2024/01/18 03:56:44;;;;;;;10.03;6.50;;;-1.40;99.90;;;;;;5057650;28;20312;-67
2024/01/18 03:59:14;;;;;;;7.97;6.93;;;-1.40;99.90;;;;;;5066650;28;20581;-68
2024/01/18 04:01:40;;;;;;;9.63;6.77;;;-1.20;99.90;;;;;;5076230;28;20197;-67
2024/01/18 04:04:05;;;;;;;8.60;7.00;;;-1.40;99.90;;;;;;5061858;28;20447;-68
2024/01/18 04:06:31;;;;;;;10.70;7.07;;;-1.40;99.90;;;;;;5064379;28;20209;-67
2024/01/18 04:08:57;;;;;;;6.63;5.70;;;-1.20;99.90;;;;;;5065589;28;20176;-69
2024/01/18 04:11:22;;;;;;;8.43;6.20;;;-1.30;99.90;;;;;;5069236;28;20197;-67
2024/01/18 04:13:48;;;;;;;7.63;5.70;;;-1.40;99.90;;;;;;5064225;28;20439;-66
2024/01/18 04:16:14;;;;;;;8.50;5.60;;;-1.20;99.90;;;;;;5063301;28;20213;-68
2024/01/18 04:18:39;;;;;;;7.67;5.77;;;-1.30;99.90;;;;;;5063264;28;20604;-68
2024/01/18 04:21:05;;;;;;;7.10;4.77;;;-1.30;99.90;;;;;;5064080;28;20420;-69
2024/01/18 04:23:31;;;;;;;8.07;5.70;;;-1.20;99.90;;;;;;5073033;28;20524;-67
2024/01/18 04:25:56;;;;;;;10.30;6.00;;;-1.30;99.90;;;;;;5073199;28;20239;-68
2024/01/18 04:28:22;;;;;;;9.00;7.20;;;-1.30;99.90;;;;;;5073969;28;20274;-68
2024/01/18 04:30:48;;;;;;;10.60;7.30;;;-1.40;99.90;;;;;;5067464;28;20254;-72
2024/01/18 04:33:14;;;;;;;15.00;8.57;;;-1.40;99.90;;;;;;5070196;28;20177;-68
2024/01/18 04:35:40;;;;;;;12.73;7.97;;;-1.40;99.90;;;;;;5062765;28;20205;-66
2024/01/18 04:38:08;;;;;;;12.00;8.57;;;-1.30;99.90;;;;;;5055872;28;20443;-67
2024/01/18 04:40:34;;;;;;;15.27;9.77;;;-1.40;99.90;;;;;;5064041;28;20604;-68
2024/01/18 04:42:59;;;;;;;20.30;11.40;;;-1.30;99.90;;;;;;5068497;28;20455;-68
2024/01/18 04:45:25;;;;;;;19.73;12.57;;;-1.20;99.90;;;;;;5072355;28;20534;-68
2024/01/18 04:47:56;;;;;;;19.27;11.53;;;-1.40;99.90;;;;;;5071304;28;20202;-67
2024/01/18 04:50:24;;;;;;;20.10;12.83;;;-1.30;99.90;;;;;;5059491;28;20193;-69
2024/01/18 04:52:53;;;;;;;17.67;12.50;;;-1.30;99.90;;;;;;5072498;28;20419;-68
2024/01/18 04:55:19;;;;;;;22.90;15.00;;;-1.40;99.90;;;;;;5076156;28;20525;-68
2024/01/18 04:57:45;;;;;;;21.47;14.90;;;-1.30;99.90;;;;;;5058041;28;20601;-67
2024/01/18 05:00:12;;;;;;;26.73;15.50;;;-1.30;99.90;;;;;;5069252;28;20424;-68
2024/01/18 05:02:38;;;;;;;20.90;14.07;;;-1.30;99.90;;;;;;5068550;28;20558;-68
2024/01/18 05:05:07;;;;;;;19.73;12.43;;;-1.20;99.90;;;;;;5061278;28;20478;-68
2024/01/18 05:07:34;;;;;;;20.77;14.40;;;-1.30;99.90;;;;;;5056849;28;20526;-69
2024/01/18 05:09:59;;;;;;;28.27;15.73;;;-1.30;99.90;;;;;;5060864;28;20420;-69
2024/01/18 05:12:25;;;;;;;26.27;17.83;;;-1.40;99.90;;;;;;5067868;28;20675;-68
2024/01/18 05:14:51;;;;;;;32.27;17.53;;;-1.40;99.90;;;;;;5075343;28;20252;-69
2024/01/18 05:17:16;;;;;;;28.17;17.50;;;-1.40;99.90;;;;;;5078228;28;20227;-68
2024/01/18 05:19:43;;;;;;;22.17;15.57;;;-1.40;99.90;;;;;;5059214;28;20185;-68
2024/01/18 05:22:10;;;;;;;23.20;15.10;;;-1.30;99.90;;;;;;5069382;28;20191;-67
2024/01/18 05:24:36;;;;;;;21.50;14.80;;;-1.50;99.90;;;;;;5076234;28;20423;-69
2024/01/18 05:27:03;;;;;;;24.03;16.10;;;-1.40;99.90;;;;;;5068540;28;20457;-70
2024/01/18 05:29:30;;;;;;;25.17;15.83;;;-1.40;99.90;;;;;;5071123;28;20435;-69
2024/01/18 05:31:56;;;;;;;30.07;17.17;;;-1.30;99.90;;;;;;5069651;28;20427;-69
2024/01/18 05:34:21;;;;;;;26.57;16.93;;;-1.40;99.90;;;;;;5065558;28;20562;-69
2024/01/18 05:36:47;;;;;;;26.60;16.17;;;-1.30;99.90;;;;;;5062521;28;20210;-69
2024/01/18 05:39:15;;;;;;;29.83;17.40;;;-1.40;99.90;;;;;;5069052;28;20216;-70
2024/01/18 05:41:40;;;;;;;29.03;16.93;;;-1.20;99.90;;;;;;5070751;28;20895;-68
2024/01/18 05:44:06;;;;;;;20.40;13.93;;;-1.30;99.90;;;;;;5072149;28;20430;-72
2024/01/18 05:46:31;;;;;;;20.97;13.20;;;-1.30;99.90;;;;;;5065314;28;20210;-69
2024/01/18 05:48:57;;;;;;;20.67;14.00;;;-1.30;99.90;;;;;;5073299;28;20185;-69
2024/01/18 05:51:23;;;;;;;24.90;15.00;;;-1.30;99.90;;;;;;5073899;28;20193;-69
2024/01/18 05:53:48;;;;;;;24.23;15.50;;;-1.30;99.90;;;;;;5073489;28;20369;-71
2024/01/18 05:56:14;;;;;;;21.60;13.07;;;-1.40;99.90;;;;;;5060214;28;20232;-70
2024/01/18 05:58:40;;;;;;;20.90;12.60;;;-1.30;99.90;;;;;;5073202;28;20194;-69
2024/01/18 06:01:06;;;;;;;21.93;12.63;;;-1.30;99.90;;;;;;5062211;28;20209;-71
2024/01/18 06:03:32;;;;;;;17.63;12.10;;;-1.30;99.90;;;;;;5065412;28;20416;-68
2024/01/18 06:06:00;;;;;;;15.73;10.60;;;-1.30;99.90;;;;;;5065120;28;20316;-69
2024/01/18 06:08:28;;;;;;;14.03;10.67;;;;;;;;;;5069621;28;20242;-69
2024/01/18 06:10:55;;;;;;;16.27;10.70;;;;;;;;;;5075645;28;20426;-70
2024/01/18 06:13:23;;;;;;;13.40;9.30;;;;;;;;;;5062219;28;20733;-69
2024/01/18 06:15:50;;;;;;;13.80;8.77;;;;;;;;;;5064918;28;20467;-69
2024/01/18 06:18:16;;;;;;;13.10;8.53;;;-1.40;99.90;;;;;;5060877;28;20456;-68
2024/01/18 06:20:42;;;;;;;16.07;9.00;;;-1.40;99.90;;;;;;5070975;28;20618;-69
2024/01/18 06:23:08;;;;;;;17.03;10.00;;;-1.20;99.90;;;;;;5068220;28;20181;-69
2024/01/18 06:25:34;;;;;;;15.70;10.43;;;-1.10;99.90;;;;;;5069817;28;20228;-70
2024/01/18 06:28:00;;;;;;;15.20;10.90;;;-1.10;99.90;;;;;;5064853;28;20413;-69
2024/01/18 06:30:26;;;;;;;20.13;13.60;;;-1.10;99.90;;;;;;5060708;28;20598;-71
2024/01/18 06:32:51;;;;;;;20.80;13.27;;;-1.10;99.90;;;;;;5069010;28;20451;-70
2024/01/18 06:35:17;;;;;;;32.67;16.03;;;-1.00;99.90;;;;;;5063588;28;20224;-70
2024/01/18 06:37:42;;;;;;;27.80;17.03;;;-1.20;99.90;;;;;;5064366;28;20205;-70
2024/01/18 06:40:09;;;;;;;24.17;17.50;;;-1.10;99.90;;;;;;5059942;28;20192;-72
2024/01/18 06:42:35;;;;;;;27.93;16.27;;;-1.20;99.90;;;;;;5075797;28;20221;-69
2024/01/18 06:45:02;;;;;;;22.90;14.77;;;-1.00;99.90;;;;;;5078182;28;20415;-72
2024/01/18 06:47:28;;;;;;;20.60;14.07;;;-1.20;99.90;;;;;;5065210;28;20892;-70
2024/01/18 06:49:54;;;;;;;23.10;13.33;;;-1.20;99.90;;;;;;5073385;28;20451;-69
2024/01/18 06:52:20;;;;;;;20.23;12.97;;;-1.10;99.90;;;;;;5061738;28;20424;-70
2024/01/18 06:54:46;;;;;;;23.03;13.40;;;-1.20;99.90;;;;;;5070077;28;20404;-71
2024/01/18 06:57:11;;;;;;;22.83;14.03;;;-1.20;99.90;;;;;;5060769;28;20475;-70
2024/01/18 06:59:46;;;;;;;22.13;15.63;;;-1.00;99.90;;;;;;5060160;28;20416;-70
2024/01/18 07:02:12;;;;;;;18.63;13.13;;;-1.20;99.90;;;;;;5071963;28;20216;-70
2024/01/18 07:04:38;;;;;;;16.90;11.80;;;-1.20;99.90;;;;;;5074440;28;20770;-69
2024/01/18 07:07:03;;;;;;;17.57;11.30;;;-1.20;99.90;;;;;;5071193;28;20440;-70
2024/01/18 07:09:29;;;;;;;15.30;10.17;;;-1.00;99.90;;;;;;5058691;28;20178;-71
2024/01/18 07:11:55;;;;;;;13.33;10.37;;;-1.20;99.90;;;;;;5063246;28;20201;-71
2024/01/18 07:14:21;;;;;;;16.23;11.23;;;-1.20;99.90;;;;;;5057665;28;20304;-71
2024/01/18 07:16:47;;;;;;;15.60;10.93;;;-1.00;99.90;;;;;;5061399;28;20302;-70
2024/01/18 07:19:12;;;;;;;14.60;10.77;;;-1.00;99.90;;;;;;5061913;28;20420;-70
2024/01/18 07:21:38;;;;;;;16.57;9.77;;;-1.20;99.90;;;;;;5072000;28;20198;-70
2024/01/18 07:24:05;;;;;;;13.87;10.17;;;;;;;;;;5070943;28;20197;-69
2024/01/18 07:26:30;;;;;;;13.87;8.43;;;-1.10;99.90;;;;;;5068509;28;20217;-71
2024/01/18 07:28:56;;;;;;;12.37;8.73;;;-1.10;99.90;;;;;;5081794;28;20948;-70
2024/01/18 07:31:22;;;;;;;12.80;9.40;;;-1.10;99.90;;;;;;5055163;28;20189;-71
2024/01/18 07:33:50;;;;;;;10.57;8.33;;;-1.10;99.90;;;;;;5068318;28;20204;-71
2024/01/18 07:36:16;;;;;;;13.63;9.23;;;-1.00;99.90;;;;;;5077839;28;20236;-70
2024/01/18 07:38:41;;;;;;;16.47;9.20;;;-1.00;99.90;;;;;;5074140;28;20431;-71
2024/01/18 07:41:07;;;;;;;12.60;8.37;;;-1.00;99.90;;;;;;5069598;28;20400;-71
2024/01/18 07:43:32;;;;;;;9.70;8.00;;;-1.10;99.90;;;;;;5082444;28;20268;-69
2024/01/18 07:45:58;;;;;;;15.23;9.47;;;-1.20;99.90;;;;;;5070922;28;20206;-70
2024/01/18 07:48:25;;;;;;;9.90;8.10;;;-1.20;99.90;;;;;;5074125;28;20562;-69
2024/01/18 07:50:50;;;;;;;10.07;8.77;;;-1.00;99.90;;;;;;5076212;28;20185;-71
2024/01/18 07:53:16;;;;;;;11.67;9.00;;;-1.00;99.90;;;;;;5045437;28;20432;-68
2024/01/18 07:55:43;;;;;;;10.83;8.00;;;-0.80;99.90;;;;;;5078559;28;20223;-69
2024/01/18 07:58:10;;;;;;;11.33;8.03;;;-1.00;99.90;;;;;;5053472;28;20229;-71
2024/01/18 08:00:35;;;;;;;15.23;10.73;;;-1.20;99.90;;;;;;5078981;28;20735;-72
2024/01/18 08:03:01;;;;;;;18.03;11.70;;;-1.10;99.90;;;;;;5066757;28;20420;-71
2024/01/18 08:05:30;;;;;;;16.87;12.17;;;-1.20;99.90;;;;;;5076151;28;20205;-70
2024/01/18 08:07:56;;;;;;;12.73;9.30;;;-1.10;99.90;;;;;;5063104;28;20626;-72
2024/01/18 08:10:23;;;;;;;14.87;9.70;;;-1.20;99.90;;;;;;5064566;28;20443;-71
2024/01/18 08:12:49;;;;;;;16.60;11.93;;;-1.20;99.90;;;;;;5074162;28;20199;-71
2024/01/18 08:15:15;;;;;;;19.23;11.43;;;-1.20;99.90;;;;;;5064590;28;20514;-71
2024/01/18 08:17:43;;;;;;;22.90;12.10;;;-1.30;99.90;;;;;;5071314;28;20922;-72
2024/01/18 08:20:12;;;;;;;19.27;12.67;;;-1.20;99.90;;;;;;5071257;28;20272;-72
2024/01/18 08:22:44;;;;;;;20.23;14.20;;;-1.50;99.90;;;;;;5067763;28;20420;-71
2024/01/18 08:25:11;;;;;;;21.17;13.93;;;-1.30;99.90;;;;;;5079592;28;20708;-70
2024/01/18 08:27:41;;;;;;;19.03;13.07;;;-1.40;99.90;;;;;;5060505;28;20489;-72
2024/01/18 08:30:08;;;;;;;17.17;13.13;;;-1.50;99.90;;;;;;5071104;28;20416;-71
2024/01/18 08:32:34;;;;;;;19.17;12.20;;;-1.60;99.90;;;;;;5071194;28;20438;-72
2024/01/18 08:35:06;;;;;;;14.10;10.57;;;-1.60;99.90;;;;;;5075566;28;20446;-72
2024/01/18 08:37:33;;;;;;;16.70;11.97;;;-1.70;99.90;;;;;;5079525;28;20443;-74
2024/01/18 08:39:59;;;;;;;17.23;11.90;;;-1.70;99.90;;;;;;5063926;28;20495;-70
2024/01/18 08:42:25;;;;;;;17.17;11.17;;;-1.70;99.90;;;;;;5063289;28;20481;-73
2024/01/18 08:44:50;;;;;;;18.13;11.63;;;-1.80;99.90;;;;;;5061139;28;20455;-73
2024/01/18 08:47:16;;;;;;;20.67;12.03;;;-1.70;99.90;;;;;;5078242;28;20201;-70
2024/01/18 08:49:42;;;;;;;18.93;12.40;;;-1.90;99.90;;;;;;5071150;28;20212;-71
2024/01/18 08:52:07;;;;;;;15.87;10.97;;;-1.90;99.90;;;;;;5066760;28;20198;-71
2024/01/18 08:54:33;;;;;;;17.30;12.00;;;-1.90;99.90;;;;;;5069974;28;20192;-71
2024/01/18 08:56:59;;;;;;;22.60;15.80;;;-1.90;99.90;;;;;;5070368;28;20228;-70
2024/01/18 08:59:25;;;;;;;25.33;14.00;;;-1.90;99.90;;;;;;5076098;28;20427;-74
2024/01/18 09:01:51;;;;;;;20.17;14.07;;;-1.90;99.90;;;;;;5077566;28;20444;-71
2024/01/18 09:04:17;;;;;;;21.03;14.50;;;-1.80;99.90;;;;;;5073433;28;20586;-73
2024/01/18 09:06:43;;;;;;;20.17;14.93;;;-1.70;99.90;;;;;;5073488;28;20465;-74
2024/01/18 09:09:09;;;;;;;28.90;15.30;;;-1.80;99.90;;;;;;5071640;28;20478;-70
2024/01/18 09:11:36;;;;;;;24.70;15.60;;;-1.60;99.90;;;;;;5079960;28;20427;-72
2024/01/18 09:14:02;;;;;;;27.77;14.67;;;-1.60;99.90;;;;;;5069532;28;20702;-72
2024/01/18 09:16:27;;;;;;;24.87;17.00;;;-1.60;99.90;;;;;;5066581;28;20482;-71
2024/01/18 09:18:53;;;;;;;30.40;18.97;;;-1.50;99.90;;;;;;5081451;28;20423;-71
2024/01/18 09:21:19;;;;;;;36.40;18.57;;;-1.50;99.90;;;;;;5075233;28;20196;-72
2024/01/18 09:23:44;;;;;;;26.80;17.27;;;-1.50;99.90;;;;;;5072822;28;20669;-71
2024/01/18 09:26:10;;;;;;;28.77;16.60;;;-1.50;99.90;;;;;;5080491;28;20209;-71
2024/01/18 09:28:36;;;;;;;28.63;16.47;;;-1.40;99.90;;;;;;5079330;28;20192;-72
2024/01/18 09:31:01;;;;;;;25.27;16.77;;;-1.30;99.90;;;;;;5067977;28;20442;-70
2024/01/18 09:33:27;;;;;;;26.53;17.43;;;-1.30;99.90;;;;;;5063780;28;20184;-70
2024/01/18 09:35:55;;;;;;;24.17;16.13;;;-1.10;99.90;;;;;;5071615;28;20221;-70
2024/01/18 09:38:21;;;;;;;26.50;16.67;;;-1.20;99.90;;;;;;5052932;28;20262;-71
2024/01/18 09:40:48;;;;;;;26.97;17.43;;;-1.10;99.90;;;;;;5075873;28;20424;-73
2024/01/18 09:43:15;;;;;;;26.13;15.33;;;-1.10;99.90;;;;;;5077665;28;20841;-70
2024/01/18 09:45:47;;;;;;;25.23;15.80;;;-1.20;99.90;;;;;;5071875;28;20473;-72
2024/01/18 09:48:13;;;;;;;28.87;17.73;;;-1.30;99.90;;;;;;5057451;28;20418;-71
2024/01/18 09:50:45;;;;;;;25.90;15.47;;;-1.20;99.90;;;;;;5077197;28;20430;-71
2024/01/18 09:53:14;;;;;;;20.83;14.40;;;-1.20;99.90;;;;;;5077673;28;20396;-71
2024/01/18 09:55:40;;;;;;;22.47;13.33;;;-1.10;99.90;;;;;;5074628;28;20419;-73
2024/01/18 09:58:12;;;;;;;22.70;13.90;;;-1.10;99.90;;;;;;5070094;28;20908;-71
2024/01/18 10:00:43;;;;;;;19.27;12.70;;;-1.10;99.90;;;;;;5073323;28;20423;-71
2024/01/18 10:03:09;;;;;;;23.67;13.17;;;-1.00;99.90;;;;;;5074050;28;20821;-73
2024/01/18 10:05:35;;;;;;;24.70;13.90;;;-1.00;99.90;;;;;;5078896;28;20480;-74
2024/01/18 10:08:00;;;;;;;22.47;14.37;;;-0.90;99.90;;;;;;5068023;28;20420;-72
2024/01/18 10:10:28;;;;;;;18.43;13.00;;;-0.90;99.90;;;;;;5042912;28;20235;-72
2024/01/18 10:12:53;;;;;;;24.73;13.90;;;-0.80;99.90;;;;;;5043348;28;20702;-73
2024/01/18 10:15:33;;;;;;;19.80;12.00;;;-0.80;99.90;;;;;;5066583;28;20450;-71
2024/01/18 10:18:04;;;;;;;20.73;11.70;;;-0.70;99.90;;;;;;5065845;28;20219;-72
2024/01/18 10:20:30;;;;;;;17.23;11.10;;;-0.60;99.90;;;;;;5063411;28;20479;-70
2024/01/18 10:22:56;;;;;;;21.60;12.60;;;-0.60;99.90;;;;;;5065804;28;20579;-69
2024/01/18 10:25:25;;;;;;;17.43;11.70;;;-0.50;99.90;;;;;;5069198;28;20432;-70
2024/01/18 10:27:55;;;;;;;19.83;13.47;;;-0.50;99.90;;;;;;5078794;28;20415;-72
2024/01/18 10:30:21;;;;;;;29.20;18.67;;;-0.50;99.90;;;;;;5078832;28;20410;-73
2024/01/18 10:32:47;;;;;;;38.08;24.90;;;-0.60;99.90;;;;;;5075421;28;20426;-70
2024/01/18 10:35:28;;;;;;;53.85;32.53;;;-0.50;99.90;;;;;;5054278;28;20489;-72
2024/01/18 10:38:05;;;;;;;39.73;23.47;;;-0.40;99.90;;;;;;5067494;28;20208;-72
2024/01/18 10:40:33;;;;;;;34.37;21.00;;;-0.50;99.90;;;;;;5069787;28;20511;-73
2024/01/18 10:43:03;;;;;;;38.73;19.80;;;-0.60;99.90;;;;;;5067720;28;20493;-69
2024/01/18 10:45:32;;;;;;;27.87;17.63;;;-0.50;99.90;;;;;;5058524;28;20467;-75
2024/01/18 10:47:58;;;;;;;25.63;17.00;;;-0.50;99.90;;;;;;5070446;28;20416;-73
2024/01/18 10:50:26;;;;;;;29.70;18.80;;;-0.40;99.90;;;;;;5046011;28;20518;-71
2024/01/18 10:52:52;;;;;;;24.90;15.87;;;-0.40;99.90;;;;;;5063791;28;20409;-73
2024/01/18 10:55:18;;;;;;;28.50;20.93;;;-0.40;99.90;;;;;;5060821;28;20467;-72
2024/01/18 10:57:44;;;;;;;36.07;20.80;;;-0.40;99.90;;;;;;5072816;28;20439;-74
2024/01/18 11:00:16;;;;;;;42.10;25.23;;;-0.40;99.90;;;;;;5068282;28;20189;-72
2024/01/18 11:02:44;;;;;;;33.20;20.00;;;-0.40;99.90;;;;;;5071927;28;20418;-72
2024/01/18 11:05:12;;;;;;;28.60;18.87;;;-0.40;99.90;;;;;;5080953;28;20454;-72
2024/01/18 11:07:41;;;;;;;34.70;20.60;;;-0.40;99.90;;;;;;5082399;28;20771;-73
2024/01/18 11:10:11;;;;;;;28.30;19.43;;;-0.30;99.90;;;;;;5066579;28;20898;-71
2024/01/18 11:12:43;;;;;;;25.63;16.27;;;-0.30;99.90;;;;;;5083957;28;20844;-73
2024/01/18 11:15:13;;;;;;;61.80;32.22;;;-0.20;99.90;;;;;;5058913;28;20581;-72
2024/01/18 11:17:46;;;;;;;42.30;24.30;;;-0.10;99.90;;;;;;5066869;28;20223;-72
2024/01/18 11:20:12;;;;;;;53.30;28.97;;;-0.20;99.90;;;;;;5063999;28;20419;-75
2024/01/18 11:22:41;;;;;;;37.73;22.63;;;-0.10;99.90;;;;;;5058646;28;20420;-73
2024/01/18 11:25:09;;;;;;;43.83;25.93;;;-0.10;99.90;;;;;;5067922;28;20542;-72
2024/01/18 11:27:38;;;;;;;31.60;20.80;;;-0.10;99.90;;;;;;5065686;28;20408;-72
2024/01/18 11:30:34;;;;;;;37.70;19.37;;;-0.10;99.90;;;;;;5067389;28;20412;-72
2024/01/18 11:33:06;;;;;;;23.00;17.20;;;-0.10;99.90;;;;;;5074422;28;20686;-74
2024/01/18 11:35:33;;;;;;;35.60;21.80;;;-0.10;99.90;;;;;;5065567;28;20440;-72
2024/01/18 11:38:23;;;;;;;31.50;20.40;;;-0.10;99.90;;;;;;5066752;28;20451;-72
2024/01/18 11:40:57;;;;;;;34.50;23.03;;;-0.10;99.90;;;;;;5079354;28;20399;-71
2024/01/18 11:43:24;;;;;;;27.70;17.97;;;-0.10;99.90;;;;;;5065524;28;20485;-72
2024/01/18 11:45:51;;;;;;;25.20;17.47;;;-0.10;99.90;;;;;;5065773;28;20432;-74
2024/01/18 11:48:18;;;;;;;23.10;16.93;;;-0.10;99.90;;;;;;5084323;28;20791;-74
2024/01/18 11:50:44;;;;;;;27.10;18.70;;;-0.10;99.90;;;;;;5073432;28;20392;-70
2024/01/18 11:53:14;;;;;;;26.43;18.37;;;-0.10;99.90;;;;;;5082408;28;20439;-70
2024/01/18 11:55:46;;;;;;;30.80;17.30;;;-0.10;99.90;;;;;;5057506;28;20896;-72
2024/01/18 11:58:12;;;;;;;28.40;20.10;;;-0.20;99.90;;;;;;5072109;28;20466;-74
2024/01/18 12:00:38;;;;;;;36.57;24.43;;;-0.20;99.90;;;;;;5066621;28;20415;-71
2024/01/18 12:03:05;;;;;;;33.40;22.80;;;-0.10;99.90;;;;;;5037100;28;20223;-75
2024/01/18 12:05:31;;;;;;;28.80;20.97;;;-0.20;99.90;;;;;;5069492;28;20923;-72
2024/01/18 12:07:57;;;;;;;35.37;23.30;;;-0.20;99.90;;;;;;5063786;28;20451;-73
2024/01/18 12:10:26;;;;;;;27.90;19.60;;;-0.20;99.90;;;;;;5065610;28;20249;-71
2024/01/18 12:12:52;;;;;;;29.87;22.00;;;-0.20;99.90;;;;;;5053901;28;20548;-72
2024/01/18 12:15:18;;;;;;;28.33;20.90;;;-0.20;99.90;;;;;;5045753;28;20522;-74
2024/01/18 12:17:45;;;;;;;39.47;25.60;;;-0.20;99.90;;;;;;5048757;28;20904;-74
2024/01/18 12:20:15;;;;;;;37.47;21.90;;;-0.20;99.90;;;;;;5067534;28;20508;-73
2024/01/18 12:22:42;;;;;;;36.60;22.30;;;-0.20;99.90;;;;;;5042146;28;20423;-73
2024/01/18 12:25:08;;;;;;;36.77;22.37;;;-0.20;99.90;;;;;;5079070;28;20412;-72
2024/01/18 12:27:34;;;;;;;35.77;22.30;;;-0.20;99.90;;;;;;5080662;28;20476;-71
2024/01/18 12:30:01;;;;;;;30.97;20.73;;;-0.20;99.90;;;;;;5079274;28;20432;-73